Time;durP1;ratioP1;P1;durP2;ratioP2;P2;SDS_P1;SDS_P2;PMS_P1;PMS_P2;Temp;Humidity;BMP_temperature;BMP_pressure;BME280_temperature;BME280_humidity;BME280_pressure;Samples;Min_cycle;Max_cycle;Signal;HPM_P1;HPM_P2
2021/07/23 00:00:40;;;;;;;8.97;8.27;;;20.20;96.10;;;;;;4912197;29;20427;-69
2021/07/23 00:03:06;;;;;;;9.93;8.93;;;20.20;96.20;;;;;;4914452;29;20178;-69
2021/07/23 00:05:32;;;;;;;10.07;9.17;;;20.20;97.30;;;;;;4915021;29;20414;-69
2021/07/23 00:07:58;;;;;;;9.57;8.77;;;20.20;98.00;;;;;;4914030;29;20186;-69
2021/07/23 00:10:24;;;;;;;9.13;8.33;;;20.10;98.40;;;;;;4914494;29;20462;-69
2021/07/23 00:12:50;;;;;;;11.63;9.60;;;20.10;98.20;;;;;;4914956;29;20178;-69
2021/07/23 00:15:16;;;;;;;9.50;8.60;;;20.10;97.70;;;;;;4911418;29;20450;-70
2021/07/23 00:17:41;;;;;;;9.87;8.93;;;20.10;98.10;;;;;;4914688;29;20186;-69
2021/07/23 00:20:07;;;;;;;9.07;8.30;;;20.00;97.30;;;;;;4914202;29;20433;-69
2021/07/23 00:22:33;;;;;;;10.17;9.17;;;20.00;96.70;;;;;;4914608;29;20529;-70
2021/07/23 00:24:59;;;;;;;9.90;9.00;;;20.00;96.70;;;;;;4914235;29;20417;-69
2021/07/23 00:27:25;;;;;;;9.23;8.47;;;20.00;96.90;;;;;;4915742;29;20610;-69
2021/07/23 00:29:50;;;;;;;9.23;8.47;;;20.00;97.90;;;;;;4901643;29;20278;-69
2021/07/23 00:32:16;;;;;;;10.27;9.27;;;19.90;97.10;;;;;;4914500;29;20226;-69
2021/07/23 00:34:42;;;;;;;10.73;9.73;;;19.90;96.70;;;;;;4918072;29;20178;-69
2021/07/23 00:37:07;;;;;;;9.40;8.50;;;19.90;99.20;;;;;;4917777;29;20615;-69
2021/07/23 00:39:33;;;;;;;10.47;8.03;;;19.90;97.10;;;;;;4918188;29;20183;-69
2021/07/23 00:41:59;;;;;;;10.20;9.30;;;19.80;96.60;;;;;;4917558;29;20205;-70
2021/07/23 00:44:24;;;;;;;9.67;8.77;;;19.80;97.20;;;;;;4918078;29;20226;-69
2021/07/23 00:46:50;;;;;;;9.67;8.87;;;19.80;96.70;;;;;;4903336;29;20242;-69
2021/07/23 00:49:16;;;;;;;8.70;7.90;;;19.80;97.40;;;;;;4900606;29;20414;-70
2021/07/23 00:51:43;;;;;;;10.70;9.60;;;19.80;97.40;;;;;;4918033;29;20601;-70
2021/07/23 00:54:10;;;;;;;9.60;8.70;;;19.70;96.90;;;;;;4917638;29;20526;-69
2021/07/23 00:56:37;;;;;;;9.07;8.27;;;19.70;98.00;;;;;;4917862;29;20453;-69
2021/07/23 00:59:03;;;;;;;10.50;9.50;;;19.70;97.60;;;;;;4917370;29;20419;-71
2021/07/23 01:01:30;;;;;;;9.67;8.80;;;19.70;98.70;;;;;;4915031;29;20418;-69
2021/07/23 01:03:56;;;;;;;9.17;8.23;;;19.60;97.80;;;;;;4917087;29;20407;-69
2021/07/23 01:06:22;;;;;;;10.67;9.57;;;19.60;97.50;;;;;;4917788;29;20469;-69
2021/07/23 01:08:48;;;;;;;9.90;8.90;;;19.60;97.20;;;;;;4917706;29;20903;-69
2021/07/23 01:11:14;;;;;;;10.00;9.10;;;19.60;97.40;;;;;;4900164;29;20852;-69
2021/07/23 01:13:42;;;;;;;11.37;10.00;;;19.60;98.60;;;;;;4917451;29;20247;-69
2021/07/23 01:16:09;;;;;;;9.10;8.40;;;19.50;98.00;;;;;;4916736;29;20839;-69
2021/07/23 01:18:35;;;;;;;9.63;8.70;;;19.50;97.40;;;;;;4917450;29;20485;-71
2021/07/23 01:21:02;;;;;;;10.20;9.30;;;19.50;97.90;;;;;;4916981;29;20460;-69
2021/07/23 01:23:33;;;;;;;9.87;8.83;;;19.50;97.40;;;;;;4900372;29;20178;-69
2021/07/23 01:25:59;;;;;;;9.23;8.43;;;19.40;97.00;;;;;;4916578;29;20429;-69
2021/07/23 01:28:29;;;;;;;9.60;8.63;;;19.40;97.00;;;;;;4917285;29;20414;-69
2021/07/23 01:30:57;;;;;;;7.93;7.33;;;19.40;97.20;;;;;;4913562;29;20482;-76
2021/07/23 01:33:22;;;;;;;9.13;8.17;;;19.30;97.20;;;;;;4917293;29;20434;-71
2021/07/23 01:35:48;;;;;;;9.13;8.43;;;19.30;97.20;;;;;;4917291;29;20430;-69
2021/07/23 01:38:15;;;;;;;8.60;7.90;;;19.20;96.90;;;;;;4899524;29;20483;-69
2021/07/23 01:40:46;;;;;;;8.90;8.13;;;19.20;97.10;;;;;;4916923;29;20410;-69
2021/07/23 01:43:13;;;;;;;8.13;7.33;;;19.20;97.30;;;;;;4899370;29;20440;-69
2021/07/23 01:45:39;;;;;;;8.57;7.77;;;19.10;97.40;;;;;;4911687;29;20423;-68
2021/07/23 01:48:05;;;;;;;9.10;8.40;;;19.10;97.40;;;;;;4916420;29;20403;-69
2021/07/23 01:50:30;;;;;;;9.30;8.50;;;19.10;97.50;;;;;;4916822;29;20297;-69
2021/07/23 01:52:56;;;;;;;8.37;7.67;;;19.10;97.40;;;;;;4916145;29;20437;-69
2021/07/23 01:55:22;;;;;;;8.60;7.70;;;19.10;97.60;;;;;;4900014;29;20606;-69
2021/07/23 01:57:48;;;;;;;8.90;8.20;;;19.10;97.60;;;;;;4917046;29;20175;-69
2021/07/23 02:00:14;;;;;;;9.77;8.97;;;19.10;97.60;;;;;;4913517;29;20197;-70
2021/07/23 02:02:40;;;;;;;9.73;8.83;;;19.00;97.60;;;;;;4916749;29;20415;-69
2021/07/23 02:05:06;;;;;;;9.13;8.30;;;19.00;97.50;;;;;;4916029;29;20419;-69
2021/07/23 02:07:32;;;;;;;9.23;8.43;;;19.00;97.60;;;;;;4916681;29;20181;-69
2021/07/23 02:09:57;;;;;;;9.40;8.63;;;19.00;97.60;;;;;;4916027;29;20454;-69
2021/07/23 02:12:23;;;;;;;10.13;9.23;;;19.00;97.60;;;;;;4916524;29;20194;-70
2021/07/23 02:14:49;;;;;;;9.70;8.90;;;19.00;97.70;;;;;;4916579;29;20174;-69
2021/07/23 02:17:15;;;;;;;9.77;9.07;;;19.00;98.00;;;;;;4915487;29;20447;-69
2021/07/23 02:19:40;;;;;;;9.83;8.97;;;18.90;97.90;;;;;;4913893;29;20186;-69
2021/07/23 02:22:06;;;;;;;9.77;9.00;;;19.00;98.00;;;;;;4915910;29;20419;-69
2021/07/23 02:24:32;;;;;;;9.37;8.67;;;18.90;97.90;;;;;;4916573;29;20182;-69
2021/07/23 02:26:58;;;;;;;9.50;8.80;;;18.90;97.90;;;;;;4916023;29;20182;-69
2021/07/23 02:29:25;;;;;;;9.20;8.50;;;18.80;98.10;;;;;;4916421;29;20489;-69
2021/07/23 02:31:50;;;;;;;10.27;9.47;;;18.80;98.20;;;;;;4915957;29;20462;-69
2021/07/23 02:34:17;;;;;;;10.47;9.57;;;18.80;98.40;;;;;;4915549;29;20903;-68
2021/07/23 02:36:43;;;;;;;9.50;8.60;;;18.80;98.30;;;;;;4916179;29;20201;-68
2021/07/23 02:39:09;;;;;;;9.60;8.80;;;18.80;98.30;;;;;;4912713;29;20481;-69
2021/07/23 02:41:35;;;;;;;10.53;8.67;;;18.80;98.20;;;;;;4916012;29;20446;-69
2021/07/23 02:44:01;;;;;;;9.63;8.90;;;18.70;98.20;;;;;;4910274;29;20450;-68
2021/07/23 02:46:27;;;;;;;9.03;8.17;;;18.70;98.70;;;;;;4915923;29;20178;-68
2021/07/23 02:48:52;;;;;;;9.40;8.70;;;18.60;98.40;;;;;;4915920;29;20414;-68
2021/07/23 02:51:18;;;;;;;10.40;9.57;;;18.60;98.50;;;;;;4897706;29;20218;-69
2021/07/23 02:53:44;;;;;;;10.67;8.70;;;18.60;98.50;;;;;;4915969;29;20269;-70
2021/07/23 02:56:09;;;;;;;9.20;8.40;;;18.60;98.60;;;;;;4915270;29;20282;-68
2021/07/23 02:58:37;;;;;;;10.20;9.20;;;18.50;98.50;;;;;;4913169;29;20184;-68
2021/07/23 03:01:07;;;;;;;10.43;9.07;;;18.50;98.70;;;;;;4915082;29;20204;-70
2021/07/23 03:03:32;;;;;;;9.80;8.90;;;18.50;98.80;;;;;;4915961;29;20414;-68
2021/07/23 03:06:01;;;;;;;8.90;8.10;;;18.40;98.90;;;;;;4914850;29;20414;-69
2021/07/23 03:08:27;;;;;;;10.37;9.40;;;18.40;98.90;;;;;;4915653;29;20515;-68
2021/07/23 03:10:53;;;;;;;10.57;9.67;;;18.40;98.80;;;;;;4915507;29;20481;-69
2021/07/23 03:13:19;;;;;;;9.97;9.07;;;18.40;99.10;;;;;;4914861;29;20422;-68
2021/07/23 03:15:45;;;;;;;10.20;9.30;;;18.40;99.30;;;;;;4915380;29;20414;-69
2021/07/23 03:18:11;;;;;;;9.67;8.70;;;18.40;99.20;;;;;;4914806;29;20229;-68
2021/07/23 03:20:39;;;;;;;10.03;9.00;;;18.40;99.10;;;;;;4915378;29;20233;-68
2021/07/23 03:23:06;;;;;;;9.93;9.00;;;18.30;99.10;;;;;;4914965;29;20209;-69
2021/07/23 03:25:31;;;;;;;9.33;8.63;;;18.40;99.30;;;;;;4915394;29;20865;-68
2021/07/23 03:27:57;;;;;;;10.73;9.77;;;18.30;99.20;;;;;;4914642;29;20502;-69
2021/07/23 03:30:23;;;;;;;10.00;9.10;;;18.30;99.30;;;;;;4915151;29;20463;-68
2021/07/23 03:32:49;;;;;;;11.20;10.20;;;18.30;99.20;;;;;;4915390;29;20189;-68
2021/07/23 03:35:15;;;;;;;10.20;9.30;;;18.30;99.30;;;;;;4914675;29;20189;-68
2021/07/23 03:37:41;;;;;;;10.90;10.10;;;18.20;99.50;;;;;;4914807;29;20607;-67
2021/07/23 03:40:08;;;;;;;10.50;9.60;;;18.30;99.90;;;;;;4914562;29;20186;-68
2021/07/23 03:42:34;;;;;;;11.80;10.77;;;18.30;99.90;;;;;;4915138;29;20430;-68
2021/07/23 03:45:00;;;;;;;11.30;10.20;;;18.20;99.80;;;;;;4914566;29;20418;-68
2021/07/23 03:47:25;;;;;;;11.73;10.73;;;18.30;99.80;;;;;;4914777;29;20403;-68
2021/07/23 03:49:51;;;;;;;11.23;10.03;;;18.30;99.70;;;;;;4915025;29;20206;-67
2021/07/23 03:52:17;;;;;;;11.53;10.47;;;18.20;99.80;;;;;;4914364;29;20691;-68
2021/07/23 03:54:42;;;;;;;11.67;10.80;;;18.30;99.90;;;;;;4915125;29;20182;-68
2021/07/23 03:57:08;;;;;;;11.30;10.20;;;18.30;99.90;;;;;;4912675;29;20265;-67
2021/07/23 03:59:34;;;;;;;11.13;10.17;;;18.30;99.90;;;;;;4914124;29;20190;-69
2021/07/23 04:02:01;;;;;;;11.63;10.53;;;18.30;99.80;;;;;;4916328;29;20201;-67
2021/07/23 04:04:27;;;;;;;12.77;11.70;;;18.30;99.80;;;;;;4918844;29;20422;-68
2021/07/23 04:06:59;;;;;;;12.83;11.73;;;18.20;99.70;;;;;;4919124;29;20415;-67
2021/07/23 04:09:29;;;;;;;13.27;11.90;;;18.20;99.80;;;;;;4918376;29;20748;-69
2021/07/23 04:11:55;;;;;;;12.97;11.77;;;18.10;99.80;;;;;;4918714;29;20422;-68
2021/07/23 04:14:22;;;;;;;12.80;11.50;;;18.00;99.90;;;;;;4918679;29;20550;-69
2021/07/23 04:16:48;;;;;;;13.53;12.33;;;18.00;99.90;;;;;;4918654;29;20457;-70
2021/07/23 04:19:14;;;;;;;11.20;10.10;;;18.10;99.90;;;;;;4918165;29;20423;-71
2021/07/23 04:21:40;;;;;;;13.17;12.00;;;18.10;99.90;;;;;;4901621;29;20418;-70
2021/07/23 04:24:06;;;;;;;11.97;10.77;;;18.00;99.90;;;;;;4898175;29;20422;-70
2021/07/23 04:26:33;;;;;;;11.87;10.77;;;18.10;99.90;;;;;;4918520;29;20189;-70
2021/07/23 04:28:59;;;;;;;13.57;12.17;;;18.10;99.90;;;;;;4917710;29;20761;-71
2021/07/23 04:31:24;;;;;;;12.40;11.30;;;18.00;99.90;;;;;;4917960;29;20484;-72
2021/07/23 04:33:50;;;;;;;11.47;10.57;;;18.00;99.90;;;;;;4901446;29;20513;-70
2021/07/23 04:36:16;;;;;;;12.50;11.30;;;18.10;99.90;;;;;;4917744;29;20360;-71
2021/07/23 04:38:41;;;;;;;12.33;11.13;;;18.00;99.90;;;;;;4915700;29;20170;-70
2021/07/23 04:41:07;;;;;;;14.20;12.90;;;18.10;99.90;;;;;;4917678;29;20229;-71
2021/07/23 04:43:35;;;;;;;13.43;12.13;;;18.10;99.90;;;;;;4915122;29;20175;-70
2021/07/23 04:46:01;;;;;;;12.43;11.33;;;18.10;99.90;;;;;;4917195;29;20640;-70
2021/07/23 04:48:26;;;;;;;12.57;11.27;;;18.10;99.90;;;;;;4918035;29;20409;-69
2021/07/23 04:50:52;;;;;;;13.10;11.80;;;18.10;99.90;;;;;;4917998;29;20218;-69
2021/07/23 04:53:18;;;;;;;16.03;12.50;;;18.10;99.90;;;;;;4917038;29;20186;-69
2021/07/23 04:55:49;;;;;;;12.40;10.80;;;18.10;99.90;;;;;;4918022;29;20186;-69
2021/07/23 04:58:16;;;;;;;14.13;12.43;;;18.10;99.90;;;;;;4917318;29;20686;-72
2021/07/23 05:00:42;;;;;;;13.97;12.37;;;18.10;99.90;;;;;;4900965;29;20406;-69
2021/07/23 05:03:08;;;;;;;13.50;12.30;;;18.10;99.90;;;;;;4914550;29;20500;-69
2021/07/23 05:05:35;;;;;;;13.10;12.00;;;18.10;99.90;;;;;;4917784;29;20910;-69
2021/07/23 05:08:01;;;;;;;12.77;11.60;;;18.10;99.90;;;;;;4917006;29;20174;-70
2021/07/23 05:10:27;;;;;;;14.43;13.03;;;18.20;99.90;;;;;;4917528;29;20955;-70
2021/07/23 05:12:53;;;;;;;13.70;12.47;;;18.20;99.90;;;;;;4916967;29;20191;-70
2021/07/23 05:15:19;;;;;;;12.70;11.50;;;18.20;99.90;;;;;;4916874;29;20171;-70
2021/07/23 05:17:44;;;;;;;13.47;12.23;;;18.20;99.90;;;;;;4917497;29;20182;-73
2021/07/23 05:20:11;;;;;;;12.87;11.57;;;18.20;99.90;;;;;;4916378;29;20501;-70
2021/07/23 05:22:38;;;;;;;12.90;11.60;;;18.20;99.90;;;;;;4917411;29;20631;-71
2021/07/23 05:25:05;;;;;;;13.13;11.40;;;18.20;99.90;;;;;;4916855;29;20466;-70
2021/07/23 05:27:31;;;;;;;15.63;12.77;;;18.20;99.90;;;;;;4915893;29;20428;-70
2021/07/23 05:29:58;;;;;;;14.10;12.40;;;18.20;99.90;;;;;;4917690;29;20477;-71
2021/07/23 05:32:23;;;;;;;13.30;11.90;;;18.20;99.90;;;;;;4914560;29;20293;-70
2021/07/23 05:34:49;;;;;;;13.03;11.73;;;18.20;99.90;;;;;;4917279;29;20501;-70
2021/07/23 05:37:15;;;;;;;13.87;12.57;;;18.20;99.90;;;;;;4916639;29;20201;-73
2021/07/23 05:39:41;;;;;;;11.40;10.37;;;18.20;99.90;;;;;;4917301;29;20178;-70
2021/07/23 05:42:11;;;;;;;13.70;12.30;;;18.20;99.90;;;;;;4914995;29;20182;-70
2021/07/23 05:44:36;;;;;;;13.97;12.67;;;18.20;99.90;;;;;;4899454;29;20848;-71
2021/07/23 05:47:02;;;;;;;14.83;13.30;;;18.20;99.90;;;;;;4913554;29;20505;-70
2021/07/23 05:49:28;;;;;;;14.57;13.17;;;18.00;99.90;;;;;;4916865;29;20266;-70
2021/07/23 05:51:54;;;;;;;14.43;12.40;;;18.10;99.90;;;;;;4916820;29;20423;-69
2021/07/23 05:54:20;;;;;;;12.90;11.70;;;18.00;99.90;;;;;;4916274;29;20186;-70
2021/07/23 05:56:46;;;;;;;14.57;13.27;;;17.90;99.90;;;;;;4913766;29;20193;-69
2021/07/23 05:59:12;;;;;;;14.23;12.93;;;17.80;99.90;;;;;;4916302;29;20243;-69
2021/07/23 06:01:38;;;;;;;13.63;12.33;;;17.60;99.90;;;;;;4912279;29;20431;-70
2021/07/23 06:04:04;;;;;;;11.87;10.83;;;17.60;99.90;;;;;;4916207;29;20413;-70
2021/07/23 06:06:32;;;;;;;13.30;11.90;;;17.70;99.90;;;;;;4916665;29;20182;-70
2021/07/23 06:08:59;;;;;;;15.07;11.73;;;17.60;99.90;;;;;;4915976;29;20411;-72
2021/07/23 06:11:26;;;;;;;13.13;11.83;;;17.60;99.90;;;;;;4910900;29;20878;-70
2021/07/23 06:13:51;;;;;;;13.60;12.20;;;17.70;99.90;;;;;;4916559;29;20419;-70
2021/07/23 06:16:17;;;;;;;14.00;12.70;;;17.80;99.90;;;;;;4915712;29;20771;-72
2021/07/23 06:18:43;;;;;;;13.07;11.70;;;17.80;99.90;;;;;;4916480;29;20270;-69
2021/07/23 06:21:09;;;;;;;13.50;12.20;;;17.80;99.90;;;;;;4916056;29;20197;-69
2021/07/23 06:23:35;;;;;;;14.00;12.80;;;17.80;99.90;;;;;;4916399;29;20182;-71
2021/07/23 06:26:02;;;;;;;13.20;11.63;;;17.90;99.90;;;;;;4913687;29;20418;-69
2021/07/23 06:28:28;;;;;;;13.60;12.37;;;17.90;99.90;;;;;;4914761;29;20929;-69
2021/07/23 06:31:01;;;;;;;13.47;12.10;;;17.90;99.90;;;;;;4914660;29;20466;-69
2021/07/23 06:33:27;;;;;;;14.03;12.63;;;17.80;99.90;;;;;;4912957;29;20425;-70
2021/07/23 06:35:53;;;;;;;14.20;12.00;;;17.90;99.90;;;;;;4898868;29;20419;-69
2021/07/23 06:38:19;;;;;;;15.03;13.73;;;17.80;99.90;;;;;;4915462;29;20179;-69
2021/07/23 06:40:44;;;;;;;14.97;13.47;;;17.70;99.90;;;;;;4916118;29;20642;-71
2021/07/23 06:43:10;;;;;;;11.43;9.97;;;17.70;99.90;;;;;;4909656;29;20193;-70
2021/07/23 06:45:52;;;;;;;18.20;16.40;;;17.80;99.90;;;;;;5119875;27;20525;-69
2021/07/23 06:48:18;;;;;;;14.97;13.67;;;18.20;99.90;;;;;;5117877;28;20578;-70
2021/07/23 06:50:44;;;;;;;17.90;14.57;;;18.40;99.90;;;;;;5117724;28;20417;-69
2021/07/23 06:53:10;;;;;;;18.37;16.67;;;18.60;99.90;;;;;;5117299;28;20175;-71
2021/07/23 06:55:35;;;;;;;18.33;14.53;;;18.60;99.90;;;;;;5118551;28;20207;-72
2021/07/23 06:58:01;;;;;;;14.90;13.70;;;18.80;99.90;;;;;;5120286;28;20681;-70
2021/07/23 07:00:27;;;;;;;15.97;14.47;;;19.10;99.90;;;;;;5120480;27;20183;-70
2021/07/23 07:02:52;;;;;;;14.17;12.37;;;19.30;99.90;;;;;;5118208;27;20167;-70
2021/07/23 07:05:18;;;;;;;11.93;10.73;;;19.40;99.90;;;;;;5116541;28;20195;-70
2021/07/23 07:07:44;;;;;;;11.43;10.40;;;19.60;99.90;;;;;;5109756;28;20224;-70
2021/07/23 07:10:10;;;;;;;15.00;10.57;;;19.70;99.30;;;;;;5120409;28;20167;-69
2021/07/23 07:12:36;;;;;;;9.90;9.00;;;19.40;98.60;;;;;;5126627;27;20440;-69
2021/07/23 07:15:02;;;;;;;10.40;9.60;;;19.40;99.90;;;;;;5119761;28;20790;-69
2021/07/23 07:17:31;;;;;;;11.03;10.03;;;19.50;99.90;;;;;;5116005;28;20171;-67
2021/07/23 07:19:59;;;;;;;12.10;11.07;;;19.60;99.50;;;;;;5109377;28;20406;-67
2021/07/23 07:22:26;;;;;;;12.87;11.53;;;19.50;98.90;;;;;;5114136;28;20428;-68
2021/07/23 07:24:53;;;;;;;11.20;10.20;;;19.50;99.20;;;;;;5129882;27;20501;-68
2021/07/23 07:27:19;;;;;;;12.23;11.13;;;19.40;99.30;;;;;;5114506;27;20413;-69
2021/07/23 07:29:45;;;;;;;11.73;10.57;;;19.40;99.90;;;;;;5126963;28;20409;-68
2021/07/23 07:32:11;;;;;;;11.80;9.83;;;19.60;99.90;;;;;;5124109;28;20425;-68
2021/07/23 07:34:37;;;;;;;10.70;9.63;;;19.80;99.50;;;;;;5129558;28;20891;-69
2021/07/23 07:37:04;;;;;;;9.63;8.97;;;20.10;99.80;;;;;;5129430;28;20260;-77
2021/07/23 07:39:30;;;;;;;10.47;8.70;;;20.30;99.30;;;;;;5129927;27;20953;-69
2021/07/23 07:41:56;;;;;;;10.37;9.37;;;20.40;98.00;;;;;;5111875;27;20413;-69
2021/07/23 07:44:22;;;;;;;11.20;10.13;;;20.50;98.70;;;;;;5119713;28;20840;-69
2021/07/23 07:46:48;;;;;;;11.03;10.07;;;20.60;98.40;;;;;;5108976;28;20481;-69
2021/07/23 07:49:16;;;;;;;12.63;11.43;;;20.40;97.70;;;;;;5107635;28;20449;-69
2021/07/23 07:51:42;;;;;;;11.80;9.97;;;20.50;98.00;;;;;;5113930;28;20566;-69
2021/07/23 07:54:08;;;;;;;12.10;11.10;;;20.60;98.10;;;;;;5117329;28;20416;-70
2021/07/23 07:56:33;;;;;;;10.97;9.97;;;20.50;97.20;;;;;;5118301;28;20183;-69
2021/07/23 07:58:59;;;;;;;9.77;8.93;;;20.50;98.70;;;;;;5107137;28;20176;-69
2021/07/23 08:01:25;;;;;;;11.30;10.40;;;20.70;99.40;;;;;;5104175;28;20512;-69
2021/07/23 08:03:50;;;;;;;11.47;10.30;;;20.80;98.20;;;;;;5102712;28;20200;-70
2021/07/23 08:06:24;;;;;;;11.57;10.60;;;20.90;97.90;;;;;;5102505;28;20643;-71
2021/07/23 08:08:52;;;;;;;10.87;9.97;;;20.90;97.20;;;;;;5105578;28;20186;-70
2021/07/23 08:11:18;;;;;;;10.60;9.70;;;21.10;97.70;;;;;;5102455;28;20963;-72
2021/07/23 08:13:44;;;;;;;11.33;10.30;;;21.20;97.70;;;;;;5104635;28;20430;-70
2021/07/23 08:16:12;;;;;;;10.50;9.50;;;21.10;96.90;;;;;;5103633;28;20474;-70
2021/07/23 08:18:38;;;;;;;9.93;8.97;;;21.10;97.80;;;;;;5104720;28;20757;-72
2021/07/23 08:21:04;;;;;;;10.57;9.67;;;21.40;98.70;;;;;;5104361;28;20416;-69
2021/07/23 08:23:31;;;;;;;9.43;8.60;;;21.60;97.20;;;;;;5103701;28;20616;-69
2021/07/23 08:25:57;;;;;;;10.10;9.30;;;21.70;97.10;;;;;;5103120;28;20754;-70
2021/07/23 08:28:22;;;;;;;11.00;9.90;;;21.80;96.90;;;;;;5104270;28;20416;-70
2021/07/23 08:30:48;;;;;;;14.80;13.30;;;22.00;96.80;;;;;;5103411;28;20411;-69
2021/07/23 08:33:14;;;;;;;11.03;10.03;;;22.20;96.30;;;;;;5111535;28;20171;-69
2021/07/23 08:35:41;;;;;;;11.90;11.00;;;22.40;96.30;;;;;;5112537;28;20167;-69
2021/07/23 08:38:07;;;;;;;10.50;9.63;;;22.60;96.40;;;;;;5094275;28;20177;-69
2021/07/23 08:40:33;;;;;;;13.33;9.80;;;22.80;96.00;;;;;;5095154;28;20407;-69
2021/07/23 08:43:02;;;;;;;10.83;10.00;;;23.00;95.10;;;;;;5094635;28;20436;-69
2021/07/23 08:45:27;;;;;;;10.00;9.20;;;23.10;95.50;;;;;;5094360;28;20223;-69
2021/07/23 08:47:53;;;;;;;9.30;8.50;;;23.30;95.50;;;;;;5094164;28;20517;-69
2021/07/23 08:50:19;;;;;;;8.80;7.87;;;23.50;95.60;;;;;;5093858;28;20203;-70
2021/07/23 08:52:50;;;;;;;9.07;8.20;;;23.70;94.50;;;;;;5094365;28;20180;-70
2021/07/23 08:55:18;;;;;;;8.20;7.60;;;23.90;94.40;;;;;;5093548;28;20180;-70
2021/07/23 08:57:44;;;;;;;10.83;9.93;;;24.10;93.90;;;;;;5094187;28;20402;-70
2021/07/23 09:00:13;;;;;;;8.43;7.63;;;24.30;93.20;;;;;;5093793;28;20444;-70
2021/07/23 09:03:00;;;;;;;8.70;8.00;;;24.40;91.90;;;;;;5093900;28;20544;-70
2021/07/23 09:05:27;;;;;;;7.30;6.60;;;24.50;91.90;;;;;;5093317;28;20961;-70
2021/07/23 09:07:52;;;;;;;8.27;7.67;;;24.60;92.20;;;;;;5093456;28;20426;-70
2021/07/23 09:10:23;;;;;;;9.07;8.33;;;24.70;91.40;;;;;;5093271;28;20402;-70
2021/07/23 09:12:51;;;;;;;7.53;6.90;;;24.80;91.80;;;;;;5090610;28;20180;-70
2021/07/23 09:15:27;;;;;;;9.57;8.80;;;25.00;91.10;;;;;;5093127;28;20916;-71
2021/07/23 09:17:54;;;;;;;9.80;9.00;;;25.10;89.30;;;;;;5093395;28;20422;-70
2021/07/23 09:20:24;;;;;;;9.80;9.20;;;25.20;90.50;;;;;;5093296;28;20423;-70
2021/07/23 09:23:24;;;;;;;9.83;9.13;;;25.20;89.20;;;;;;5094033;28;20459;-70
2021/07/23 09:25:49;;;;;;;8.67;8.07;;;25.30;90.50;;;;;;5094092;28;20450;-69
2021/07/23 09:28:18;;;;;;;8.80;8.10;;;25.50;90.30;;;;;;5092746;28;20509;-69
2021/07/23 09:30:44;;;;;;;8.03;7.30;;;25.60;89.60;;;;;;5093882;28;20175;-70
2021/07/23 09:33:10;;;;;;;8.23;7.53;;;25.60;87.50;;;;;;5092943;28;20422;-70
2021/07/23 09:35:36;;;;;;;8.63;8.00;;;25.70;88.50;;;;;;5093379;28;20180;-68
2021/07/23 09:38:02;;;;;;;9.53;8.77;;;25.80;86.80;;;;;;5093488;28;20417;-69
2021/07/23 09:40:46;;;;;;;8.27;7.60;;;25.90;86.80;;;;;;5093014;28;20406;-71
2021/07/23 09:43:11;;;;;;;8.90;8.10;;;26.00;87.50;;;;;;5092418;28;20479;-69
2021/07/23 09:45:37;;;;;;;9.40;8.50;;;26.00;84.10;;;;;;5092928;28;20462;-69
2021/07/23 09:48:09;;;;;;;8.70;8.00;;;25.80;82.10;;;;;;5092911;28;20179;-69
2021/07/23 09:50:39;;;;;;;7.40;6.70;;;25.80;83.80;;;;;;5093099;28;20442;-69
2021/07/23 09:53:13;;;;;;;8.60;7.97;;;25.80;84.60;;;;;;5093148;28;20414;-69
2021/07/23 09:55:40;;;;;;;9.30;8.50;;;25.90;86.70;;;;;;5093391;28;20425;-70
2021/07/23 09:58:07;;;;;;;9.07;8.27;;;26.10;84.80;;;;;;5092680;28;20450;-70
2021/07/23 10:00:43;;;;;;;8.00;7.50;;;26.10;82.00;;;;;;5091961;28;20418;-71
2021/07/23 10:03:13;;;;;;;9.13;8.33;;;26.20;85.10;;;;;;5092406;28;20407;-77
2021/07/23 10:05:47;;;;;;;8.87;8.17;;;26.30;83.20;;;;;;5092625;28;20845;-69
2021/07/23 10:08:21;;;;;;;8.40;7.70;;;26.40;83.70;;;;;;5092132;28;20396;-69
2021/07/23 10:10:50;;;;;;;9.60;8.80;;;26.60;86.40;;;;;;5091473;28;20417;-69
2021/07/23 10:13:20;;;;;;;9.13;8.40;;;26.60;81.70;;;;;;5091743;28;20418;-68
2021/07/23 10:15:47;;;;;;;9.83;8.23;;;26.60;82.50;;;;;;5091766;28;20418;-69
2021/07/23 10:18:12;;;;;;;9.33;8.50;;;26.60;80.40;;;;;;5091831;28;20414;-69
2021/07/23 10:20:39;;;;;;;10.73;9.83;;;26.80;82.00;;;;;;5092331;28;20452;-69
2021/07/23 10:23:05;;;;;;;9.50;8.77;;;26.80;79.10;;;;;;5092913;28;20189;-69
2021/07/23 10:25:34;;;;;;;11.23;10.23;;;26.70;80.50;;;;;;5091075;28;20545;-69
2021/07/23 10:28:01;;;;;;;11.07;10.10;;;26.80;80.30;;;;;;5092829;28;20180;-68
2021/07/23 10:30:32;;;;;;;10.63;9.73;;;26.80;81.00;;;;;;5091899;28;20437;-70
2021/07/23 10:32:58;;;;;;;9.90;9.00;;;26.60;77.60;;;;;;5091885;28;20475;-70
2021/07/23 10:35:24;;;;;;;9.20;8.50;;;26.60;84.10;;;;;;5092099;28;20406;-71
2021/07/23 10:37:52;;;;;;;10.47;9.63;;;26.80;84.10;;;;;;5092234;28;20426;-70
2021/07/23 10:40:32;;;;;;;11.13;10.10;;;26.90;80.90;;;;;;5092079;28;20179;-72
2021/07/23 10:42:58;;;;;;;9.83;8.93;;;27.00;78.50;;;;;;5092801;28;20417;-73
2021/07/23 10:45:41;;;;;;;10.17;9.17;;;27.20;81.40;;;;;;5080299;28;20477;-69
2021/07/23 10:48:07;;;;;;;11.03;9.93;;;27.20;79.40;;;;;;5032578;28;20177;-69
2021/07/23 10:50:38;;;;;;;9.43;8.63;;;27.00;75.40;;;;;;5031954;28;20408;-69
2021/07/23 10:53:23;;;;;;;10.20;9.30;;;27.10;79.00;;;;;;5032482;28;20409;-69
2021/07/23 10:55:49;;;;;;;10.33;9.53;;;27.30;82.20;;;;;;5032466;28;20413;-70
2021/07/23 10:58:15;;;;;;;9.90;8.90;;;27.40;78.80;;;;;;5062894;28;20510;-70
2021/07/23 11:00:50;;;;;;;9.27;8.47;;;27.50;78.10;;;;;;5058556;28;20189;-70
2021/07/23 11:03:39;;;;;;;9.80;9.10;;;27.60;77.50;;;;;;5050038;28;20538;-71
2021/07/23 11:06:21;;;;;;;10.03;9.23;;;27.80;79.60;;;;;;5051615;28;20456;-72
2021/07/23 11:08:52;;;;;;;10.37;9.40;;;27.90;78.70;;;;;;5048599;28;20427;-71
2021/07/23 11:11:20;;;;;;;9.67;8.97;;;27.90;74.60;;;;;;5052056;28;20486;-71
2021/07/23 11:13:47;;;;;;;9.13;8.43;;;27.80;75.80;;;;;;5050563;28;20444;-71
2021/07/23 11:16:15;;;;;;;9.90;9.20;;;27.80;77.50;;;;;;5051167;28;20454;-78
2021/07/23 11:18:54;;;;;;;10.33;9.47;;;27.90;73.10;;;;;;5050806;28;20432;-69
2021/07/23 11:21:21;;;;;;;11.13;10.33;;;27.80;73.50;;;;;;5049855;28;20420;-70
2021/07/23 11:23:48;;;;;;;11.53;10.73;;;27.80;71.50;;;;;;5051249;28;20538;-70
2021/07/23 11:26:23;;;;;;;11.20;10.30;;;27.80;72.10;;;;;;5050937;28;20462;-77
2021/07/23 11:28:51;;;;;;;12.10;11.20;;;27.80;72.00;;;;;;5051162;28;20419;-72
2021/07/23 11:31:32;;;;;;;9.43;8.70;;;27.80;69.00;;;;;;5052216;28;20408;-71
2021/07/23 11:34:00;;;;;;;10.70;9.90;;;27.60;71.20;;;;;;5054609;28;20412;-71
2021/07/23 11:36:39;;;;;;;10.70;9.90;;;27.70;74.30;;;;;;5054822;28;20930;-70
2021/07/23 11:39:08;;;;;;;11.20;10.20;;;27.80;74.90;;;;;;5055608;28;20408;-70
2021/07/23 11:41:35;;;;;;;11.70;10.77;;;27.70;73.00;;;;;;5054686;28;20410;-70
2021/07/23 11:44:09;;;;;;;9.93;9.13;;;27.60;72.00;;;;;;5071971;28;20469;-70
2021/07/23 11:46:37;;;;;;;11.47;10.63;;;27.50;72.70;;;;;;5104000;28;20801;-70
2021/07/23 11:49:03;;;;;;;10.33;9.63;;;27.40;75.60;;;;;;5099309;28;20417;-70
2021/07/23 11:51:46;;;;;;;9.87;9.00;;;27.50;77.20;;;;;;5101049;28;20479;-70
2021/07/23 11:54:16;;;;;;;9.70;8.90;;;27.70;79.20;;;;;;5094948;28;20426;-78
2021/07/23 11:56:42;;;;;;;9.00;8.30;;;27.80;79.50;;;;;;5103690;28;20420;-72
2021/07/23 11:59:07;;;;;;;15.13;9.70;;;27.90;77.50;;;;;;5106819;28;20407;-71
2021/07/23 12:01:35;;;;;;;12.53;11.27;;;28.00;76.60;;;;;;5097515;28;20175;-69
2021/07/23 12:04:01;;;;;;;21.20;19.00;;;28.10;77.80;;;;;;5093348;28;20595;-69
2021/07/23 12:06:29;;;;;;;26.93;22.17;;;28.10;77.50;;;;;;5094041;28;20414;-74
2021/07/23 12:08:57;;;;;;;31.73;27.30;;;28.20;77.50;;;;;;5095048;28;20183;-69
2021/07/23 12:11:24;;;;;;;10.93;9.93;;;28.30;76.50;;;;;;5094551;28;20562;-68
2021/07/23 12:13:53;;;;;;;19.10;17.07;;;28.20;71.40;;;;;;5100062;28;20513;-68
2021/07/23 12:16:19;;;;;;;10.20;9.40;;;28.20;74.90;;;;;;5103968;28;20496;-70
2021/07/23 12:18:58;;;;;;;22.10;16.07;;;28.30;74.60;;;;;;5100805;28;20402;-67
2021/07/23 12:21:25;;;;;;;14.73;13.23;;;28.40;73.70;;;;;;5100774;28;20410;-70
2021/07/23 12:24:08;;;;;;;11.00;10.00;;;28.40;70.90;;;;;;5102175;28;20454;-70
2021/07/23 12:26:35;;;;;;;10.33;9.20;;;28.40;74.20;;;;;;5101797;28;20411;-70
2021/07/23 12:29:02;;;;;;;9.40;8.50;;;28.30;75.10;;;;;;5102880;28;20399;-71
2021/07/23 12:31:28;;;;;;;10.30;9.50;;;28.30;77.90;;;;;;5103663;28;20571;-72
2021/07/23 12:34:08;;;;;;;10.43;9.40;;;28.30;74.00;;;;;;5096907;28;20446;-70
2021/07/23 12:36:42;;;;;;;10.60;9.70;;;28.30;76.50;;;;;;5092530;28;20172;-71